sensor_id;sensor_type;location;lat;lon;timestamp;pressure;altitude;pressure_sealevel;temperature;humidity
1776;BME280;885;42.626;23.200;2023-05-02T00:01:53;167494.13;;;8.63;100.00
1776;BME280;885;42.626;23.200;2023-05-02T00:04:20;167517.56;;;8.71;100.00
1776;BME280;885;42.626;23.200;2023-05-02T00:06:46;167531.34;;;8.76;100.00
1776;BME280;885;42.626;23.200;2023-05-02T00:09:13;167540.97;;;8.80;100.00
1776;BME280;885;42.626;23.200;2023-05-02T00:11:40;167524.44;;;8.74;100.00
1776;BME280;885;42.626;23.200;2023-05-02T00:14:07;167439.06;;;8.43;100.00
1776;BME280;885;42.626;23.200;2023-05-02T00:16:38;167437.69;;;8.42;100.00
1776;BME280;885;42.626;23.200;2023-05-02T00:19:05;167447.34;;;8.46;100.00
1776;BME280;885;42.626;23.200;2023-05-02T00:21:32;167455.59;;;8.49;100.00
1776;BME280;885;42.626;23.200;2023-05-02T00:23:59;167463.88;;;8.52;100.00
1776;BME280;885;42.626;23.200;2023-05-02T00:26:26;167476.28;;;8.56;100.00
1776;BME280;885;42.626;23.200;2023-05-02T00:28:53;167466.59;;;8.53;100.00
1776;BME280;885;42.626;23.200;2023-05-02T00:31:20;167474.88;;;8.56;100.00
1776;BME280;885;42.626;23.200;2023-05-02T00:33:48;167443.19;;;8.44;100.00
1776;BME280;885;42.626;23.200;2023-05-02T00:36:15;167411.53;;;8.33;100.00
1776;BME280;885;42.626;23.200;2023-05-02T00:38:43;167425.34;;;8.38;100.00
1776;BME280;885;42.626;23.200;2023-05-02T00:41:10;167423.94;;;8.37;100.00
1776;BME280;885;42.626;23.200;2023-05-02T00:43:37;167450.09;;;8.47;100.00
1776;BME280;885;42.626;23.200;2023-05-02T00:46:05;167474.88;;;8.56;100.00
1776;BME280;885;42.626;23.200;2023-05-02T00:48:33;167488.63;;;8.61;100.00
1776;BME280;885;42.626;23.200;2023-05-02T00:51:03;167501.03;;;8.65;100.00
1776;BME280;885;42.626;23.200;2023-05-02T00:53:31;167510.72;;;8.69;100.00
1776;BME280;885;42.626;23.200;2023-05-02T00:55:58;167507.94;;;8.68;100.00
1776;BME280;885;42.626;23.200;2023-05-02T00:58:25;167524.44;;;8.74;100.00
1776;BME280;885;42.626;23.200;2023-05-02T01:01:05;167547.88;;;8.82;100.00
1776;BME280;885;42.626;23.200;2023-05-02T01:03:40;167481.78;;;8.58;100.00
1776;BME280;885;42.626;23.200;2023-05-02T01:06:23;167430.84;;;8.40;100.00
1776;BME280;885;42.626;23.200;2023-05-02T01:08:57;167436.34;;;8.42;100.00
1776;BME280;885;42.626;23.200;2023-05-02T01:11:34;167447.34;;;8.46;100.00
1776;BME280;885;42.626;23.200;2023-05-02T01:14:07;167445.97;;;8.45;100.00
1776;BME280;885;42.626;23.200;2023-05-02T01:16:38;167440.47;;;8.43;100.00
1776;BME280;885;42.626;23.200;2023-05-02T01:19:08;167410.16;;;8.32;100.00
1776;BME280;885;42.626;23.200;2023-05-02T01:21:40;167406.03;;;8.31;100.00
1776;BME280;885;42.626;23.200;2023-05-02T01:24:12;167389.47;;;8.25;100.00
1776;BME280;885;42.626;23.200;2023-05-02T01:26:46;167408.78;;;8.32;100.00
1776;BME280;885;42.626;23.200;2023-05-02T01:29:19;167434.97;;;8.41;100.00
1776;BME280;885;42.626;23.200;2023-05-02T01:31:49;167408.78;;;8.32;100.00
1776;BME280;885;42.626;23.200;2023-05-02T01:34:18;167378.47;;;8.21;100.00
1776;BME280;885;42.626;23.200;2023-05-02T01:36:46;167370.19;;;8.18;100.00
1776;BME280;885;42.626;23.200;2023-05-02T01:39:18;167372.97;;;8.19;100.00
1776;BME280;885;42.626;23.200;2023-05-02T01:41:48;167414.28;;;8.34;100.00
1776;BME280;885;42.626;23.200;2023-05-02T01:44:18;167423.94;;;8.37;100.00
1776;BME280;885;42.626;23.200;2023-05-02T01:46:46;167422.56;;;8.37;100.00
1776;BME280;885;42.626;23.200;2023-05-02T01:49:14;167419.78;;;8.36;100.00
1776;BME280;885;42.626;23.200;2023-05-02T01:51:44;167417.06;;;8.35;100.00
1776;BME280;885;42.626;23.200;2023-05-02T01:54:12;167414.28;;;8.34;100.00
1776;BME280;885;42.626;23.200;2023-05-02T01:56:41;167428.06;;;8.39;100.00
1776;BME280;885;42.626;23.200;2023-05-02T01:59:15;167421.16;;;8.36;100.00
1776;BME280;885;42.626;23.200;2023-05-02T02:01:45;167403.25;;;8.30;100.00
1776;BME280;885;42.626;23.200;2023-05-02T02:04:13;167403.25;;;8.30;100.00
1776;BME280;885;42.626;23.200;2023-05-02T02:06:44;167395.03;;;8.27;100.00
1776;BME280;885;42.626;23.200;2023-05-02T02:09:11;167352.28;;;8.11;100.00
1776;BME280;885;42.626;23.200;2023-05-02T02:11:43;167310.97;;;7.96;100.00
1776;BME280;885;42.626;23.200;2023-05-02T02:14:17;167302.75;;;7.93;100.00
1776;BME280;885;42.626;23.200;2023-05-02T02:16:46;167320.63;;;7.99;100.00
1776;BME280;885;42.626;23.200;2023-05-02T02:19:16;167308.25;;;7.95;100.00
1776;BME280;885;42.626;23.200;2023-05-02T02:21:45;167308.25;;;7.95;100.00
1776;BME280;885;42.626;23.200;2023-05-02T02:24:15;167312.34;;;7.96;100.00
1776;BME280;885;42.626;23.200;2023-05-02T02:26:42;167328.88;;;8.02;100.00
1776;BME280;885;42.626;23.200;2023-05-02T02:29:10;167304.13;;;7.93;100.00
1776;BME280;885;42.626;23.200;2023-05-02T02:31:37;167272.44;;;7.82;100.00
1776;BME280;885;42.626;23.200;2023-05-02T02:34:08;167253.22;;;7.75;100.00
1776;BME280;885;42.626;23.200;2023-05-02T02:36:41;167279.34;;;7.84;100.00
1776;BME280;885;42.626;23.200;2023-05-02T02:39:20;167304.13;;;7.93;100.00
1776;BME280;885;42.626;23.200;2023-05-02T02:41:59;167323.38;;;8.00;100.00
1776;BME280;885;42.626;23.200;2023-05-02T02:44:34;167323.38;;;8.00;100.00
1776;BME280;885;42.626;23.200;2023-05-02T02:47:07;167320.63;;;7.99;100.00
1776;BME280;885;42.626;23.200;2023-05-02T02:49:47;167326.16;;;8.01;100.00
1776;BME280;885;42.626;23.200;2023-05-02T02:52:20;167328.88;;;8.02;100.00
1776;BME280;885;42.626;23.200;2023-05-02T02:54:56;167345.38;;;8.09;100.00
1776;BME280;885;42.626;23.200;2023-05-02T02:57:29;167326.16;;;8.01;100.00
1776;BME280;885;42.626;23.200;2023-05-02T03:00:04;167317.88;;;7.98;100.00
1776;BME280;885;42.626;23.200;2023-05-02T03:02:31;167312.34;;;7.96;100.00
1776;BME280;885;42.626;23.200;2023-05-02T03:05:00;167320.63;;;7.99;100.00
1776;BME280;885;42.626;23.200;2023-05-02T03:07:28;167346.78;;;8.09;100.00
1776;BME280;885;42.626;23.200;2023-05-02T03:09:55;167328.88;;;8.02;100.00
1776;BME280;885;42.626;23.200;2023-05-02T03:12:22;167317.88;;;7.98;100.00
1776;BME280;885;42.626;23.200;2023-05-02T03:14:49;167312.34;;;7.96;100.00
1776;BME280;885;42.626;23.200;2023-05-02T03:17:16;167287.63;;;7.87;100.00
1776;BME280;885;42.626;23.200;2023-05-02T03:19:43;167268.34;;;7.80;100.00
1776;BME280;885;42.626;23.200;2023-05-02T03:22:11;167305.47;;;7.94;100.00
1776;BME280;885;42.626;23.200;2023-05-02T03:24:38;167298.63;;;7.91;100.00
1776;BME280;885;42.626;23.200;2023-05-02T03:27:04;167287.63;;;7.87;100.00
1776;BME280;885;42.626;23.200;2023-05-02T03:29:31;167315.13;;;7.97;100.00
1776;BME280;885;42.626;23.200;2023-05-02T03:31:58;167334.38;;;8.04;100.00
1776;BME280;885;42.626;23.200;2023-05-02T03:34:24;167326.16;;;8.01;100.00
1776;BME280;885;42.626;23.200;2023-05-02T03:36:51;167315.13;;;7.97;100.00
1776;BME280;885;42.626;23.200;2023-05-02T03:39:19;167291.75;;;7.89;100.00
1776;BME280;885;42.626;23.200;2023-05-02T03:41:46;167253.22;;;7.75;100.00
1776;BME280;885;42.626;23.200;2023-05-02T03:44:13;167246.31;;;7.72;100.00
1776;BME280;885;42.626;23.200;2023-05-02T03:46:40;167265.56;;;7.79;100.00
1776;BME280;885;42.626;23.200;2023-05-02T03:49:06;167306.84;;;7.94;100.00
1776;BME280;885;42.626;23.200;2023-05-02T03:51:33;167345.38;;;8.09;100.00
1776;BME280;885;42.626;23.200;2023-05-02T03:54:00;167355.06;;;8.12;100.00
1776;BME280;885;42.626;23.200;2023-05-02T03:56:28;167366.06;;;8.16;100.00
1776;BME280;885;42.626;23.200;2023-05-02T03:58:55;167404.66;;;8.30;100.00
1776;BME280;885;42.626;23.200;2023-05-02T04:01:22;167433.56;;;8.41;100.00
1776;BME280;885;42.626;23.200;2023-05-02T04:03:51;167421.16;;;8.36;100.00
1776;BME280;885;42.626;23.200;2023-05-02T04:06:18;167366.06;;;8.16;100.00
1776;BME280;885;42.626;23.200;2023-05-02T04:08:45;167397.75;;;8.28;100.00
1776;BME280;885;42.626;23.200;2023-05-02T04:11:12;167437.69;;;8.42;100.00
1776;BME280;885;42.626;23.200;2023-05-02T04:13:40;167483.13;;;8.59;100.00
1776;BME280;885;42.626;23.200;2023-05-02T04:16:07;167476.28;;;8.56;100.00
1776;BME280;885;42.626;23.200;2023-05-02T04:18:34;167462.50;;;8.51;100.00
1776;BME280;885;42.626;23.200;2023-05-02T04:21:01;167473.50;;;8.55;100.00
1776;BME280;885;42.626;23.200;2023-05-02T04:23:28;167483.13;;;8.59;100.00
1776;BME280;885;42.626;23.200;2023-05-02T04:25:55;167505.19;;;8.67;100.00
1776;BME280;885;42.626;23.200;2023-05-02T04:28:22;167527.22;;;8.75;100.00
1776;BME280;885;42.626;23.200;2023-05-02T04:30:50;167546.47;;;8.82;100.00
1776;BME280;885;42.626;23.200;2023-05-02T04:33:17;167579.56;;;8.94;100.00
1776;BME280;885;42.626;23.200;2023-05-02T04:35:44;167604.34;;;9.03;100.00
1776;BME280;885;42.626;23.200;2023-05-02T04:38:11;167618.13;;;9.08;100.00
1776;BME280;885;42.626;23.200;2023-05-02T04:40:38;167673.22;;;9.28;100.00
1776;BME280;885;42.626;23.200;2023-05-02T04:43:05;167729.72;;;9.49;100.00
1776;BME280;885;42.626;23.200;2023-05-02T04:45:34;167804.13;;;9.76;100.00
1776;BME280;885;42.626;23.200;2023-05-02T04:48:02;167842.75;;;9.90;100.00
1776;BME280;885;42.626;23.200;2023-05-02T04:50:29;167848.28;;;9.92;100.00
1776;BME280;885;42.626;23.200;2023-05-02T04:52:56;167860.69;;;9.97;100.00
1776;BME280;885;42.626;23.200;2023-05-02T04:55:23;167859.31;;;9.96;100.00
1776;BME280;885;42.626;23.200;2023-05-02T04:57:51;167863.44;;;9.98;100.00
1776;BME280;885;42.626;23.200;2023-05-02T05:00:18;167879.97;;;10.04;100.00
1776;BME280;885;42.626;23.200;2023-05-02T05:02:46;167884.13;;;10.05;100.00
1776;BME280;885;42.626;23.200;2023-05-02T05:05:14;167893.75;;;10.09;100.00
1776;BME280;885;42.626;23.200;2023-05-02T05:07:41;167939.31;;;10.25;100.00
1776;BME280;885;42.626;23.200;2023-05-02T05:10:08;167902.06;;;10.12;100.00
1776;BME280;885;42.626;23.200;2023-05-02T05:12:36;167953.13;;;10.30;100.00
1776;BME280;885;42.626;23.200;2023-05-02T05:15:03;167982.03;;;10.41;100.00
1776;BME280;885;42.626;23.200;2023-05-02T05:17:31;167955.84;;;10.31;100.00
1776;BME280;885;42.626;23.200;2023-05-02T05:19:58;167958.63;;;10.32;100.00
1776;BME280;885;42.626;23.200;2023-05-02T05:22:26;168004.16;;;10.49;100.00
1776;BME280;885;42.626;23.200;2023-05-02T05:24:53;168002.75;;;10.49;100.00
1776;BME280;885;42.626;23.200;2023-05-02T05:27:20;168086.88;;;10.79;100.00
1776;BME280;885;42.626;23.200;2023-05-02T05:29:47;168161.38;;;11.06;100.00
1776;BME280;885;42.626;23.200;2023-05-02T05:32:13;168252.44;;;11.40;100.00
1776;BME280;885;42.626;23.200;2023-05-02T05:34:40;168302.16;;;11.58;100.00
1776;BME280;885;42.626;23.200;2023-05-02T05:37:07;168376.75;;;11.85;98.51
1776;BME280;885;42.626;23.200;2023-05-02T05:39:35;168467.88;;;12.18;97.79
1776;BME280;885;42.626;23.200;2023-05-02T05:42:02;168542.44;;;12.45;97.15
1776;BME280;885;42.626;23.200;2023-05-02T05:44:30;168611.50;;;12.70;94.69
1776;BME280;885;42.626;23.200;2023-05-02T05:46:57;168648.78;;;12.84;92.71
1776;BME280;885;42.626;23.200;2023-05-02T05:49:23;168711.03;;;13.07;89.13
1776;BME280;885;42.626;23.200;2023-05-02T05:51:50;168871.34;;;13.65;88.22
1776;BME280;885;42.626;23.200;2023-05-02T05:54:17;168922.50;;;13.84;83.92
1776;BME280;885;42.626;23.200;2023-05-02T05:56:45;168973.66;;;14.02;83.54
1776;BME280;885;42.626;23.200;2023-05-02T05:59:12;168843.72;;;13.55;83.24
1776;BME280;885;42.626;23.200;2023-05-02T06:01:39;168885.16;;;13.70;85.94
1776;BME280;885;42.626;23.200;2023-05-02T06:04:06;168916.97;;;13.82;86.82
1776;BME280;885;42.626;23.200;2023-05-02T06:06:33;168915.56;;;13.81;87.25
1776;BME280;885;42.626;23.200;2023-05-02T06:09:00;168937.69;;;13.89;84.64
1776;BME280;885;42.626;23.200;2023-05-02T06:11:26;168962.59;;;13.98;83.13
1776;BME280;885;42.626;23.200;2023-05-02T06:13:54;168973.66;;;14.02;83.93
1776;BME280;885;42.626;23.200;2023-05-02T06:16:21;169253.09;;;15.04;82.39
1776;BME280;885;42.626;23.200;2023-05-02T06:18:49;169527.25;;;16.04;78.11
1776;BME280;885;42.626;23.200;2023-05-02T06:21:16;169689.34;;;16.62;72.55
1776;BME280;885;42.626;23.200;2023-05-02T06:23:43;169764.16;;;16.90;69.76
1776;BME280;885;42.626;23.200;2023-05-02T06:26:10;169761.38;;;16.89;72.60
1776;BME280;885;42.626;23.200;2023-05-02T06:28:36;169710.13;;;16.70;73.07
1776;BME280;885;42.626;23.200;2023-05-02T06:31:05;169578.47;;;16.22;71.24
1776;BME280;885;42.626;23.200;2023-05-02T06:33:32;169361.13;;;15.43;71.97
1776;BME280;885;42.626;23.200;2023-05-02T06:35:59;169012.34;;;14.16;76.76
1776;BME280;885;42.626;23.200;2023-05-02T06:38:26;168957.06;;;13.96;80.11
1776;BME280;885;42.626;23.200;2023-05-02T06:40:53;169064.97;;;14.36;80.89
1776;BME280;885;42.626;23.200;2023-05-02T06:43:20;169146.59;;;14.65;78.83
1776;BME280;885;42.626;23.200;2023-05-02T06:45:47;169337.53;;;15.35;79.01
1776;BME280;885;42.626;23.200;2023-05-02T06:48:15;169625.59;;;16.39;73.19
1776;BME280;885;42.626;23.200;2023-05-02T06:50:41;169808.50;;;17.06;70.76
1776;BME280;885;42.626;23.200;2023-05-02T06:53:08;169895.81;;;17.37;66.47
1776;BME280;885;42.626;23.200;2023-05-02T06:55:35;170034.47;;;17.88;66.10
1776;BME280;885;42.626;23.200;2023-05-02T06:58:02;170110.75;;;18.15;63.92
1776;BME280;885;42.626;23.200;2023-05-02T07:00:29;170159.28;;;18.33;63.30
1776;BME280;885;42.626;23.200;2023-05-02T07:02:55;170145.44;;;18.28;64.18
1776;BME280;885;42.626;23.200;2023-05-02T07:05:24;170084.38;;;18.06;63.13
1776;BME280;885;42.626;23.200;2023-05-02T07:07:51;170045.56;;;17.92;63.74
1776;BME280;885;42.626;23.200;2023-05-02T07:10:17;169973.50;;;17.66;64.47
1776;BME280;885;42.626;23.200;2023-05-02T07:12:44;169916.56;;;17.45;65.09
1776;BME280;885;42.626;23.200;2023-05-02T07:15:11;169897.22;;;17.38;66.14
1776;BME280;885;42.626;23.200;2023-05-02T07:17:38;169886.13;;;17.34;64.92
1776;BME280;885;42.626;23.200;2023-05-02T07:20:06;169899.94;;;17.39;64.87
1776;BME280;885;42.626;23.200;2023-05-02T07:22:35;169895.63;;;17.38;64.77
1776;BME280;885;42.626;23.200;2023-05-02T07:25:02;169837.47;;;17.17;64.53
1776;BME280;885;42.626;23.200;2023-05-02T07:27:29;169779.25;;;16.96;65.41
1776;BME280;885;42.626;23.200;2023-05-02T07:29:58;169409.63;;;16.98;62.76
1776;BME280;885;42.626;23.200;2023-05-02T07:32:25;169419.28;;;17.02;63.06
1776;BME280;885;42.626;23.200;2023-05-02T07:34:52;169009.66;;;16.89;63.38
1776;BME280;885;42.626;23.200;2023-05-02T07:37:20;169026.19;;;16.95;63.71
1776;BME280;885;42.626;23.200;2023-05-02T07:39:49;169052.44;;;17.05;62.15
1776;BME280;885;42.626;23.200;2023-05-02T07:42:16;169075.88;;;17.13;63.92
1776;BME280;885;42.626;23.200;2023-05-02T07:44:43;169104.78;;;17.24;63.07
1776;BME280;885;42.626;23.200;2023-05-02T07:47:10;169117.22;;;17.28;63.14
1776;BME280;885;42.626;23.200;2023-05-02T07:49:36;168711.69;;;17.17;62.17
1776;BME280;885;42.626;23.200;2023-05-02T07:52:03;168747.44;;;17.30;61.92
1776;BME280;885;42.626;23.200;2023-05-02T07:54:30;168777.72;;;17.41;60.70
1776;BME280;885;42.626;23.200;2023-05-02T07:56:58;168346.09;;;17.21;61.46
1776;BME280;885;42.626;23.200;2023-05-02T07:59:28;168788.75;;;17.45;60.87
1776;BME280;885;42.626;23.200;2023-05-02T08:01:55;168013.34;;;17.36;59.75
1776;BME280;885;42.626;23.200;2023-05-02T08:04:22;168018.84;;;17.38;60.02
1776;BME280;885;42.626;23.200;2023-05-02T08:06:49;168054.53;;;17.52;59.63
1776;BME280;885;42.626;23.200;2023-05-02T08:09:15;168508.22;;;17.80;60.65
1776;BME280;885;42.626;23.200;2023-05-02T08:11:42;168589.25;;;18.10;59.54
1776;BME280;885;42.626;23.200;2023-05-02T08:14:11;168583.75;;;18.08;58.93
1776;BME280;885;42.626;23.200;2023-05-02T08:16:37;167687.41;;;17.55;60.12
1776;BME280;885;42.626;23.200;2023-05-02T08:19:04;168108.00;;;17.71;61.46
1776;BME280;885;42.626;23.200;2023-05-02T08:21:31;168132.66;;;17.80;60.85
1776;BME280;885;42.626;23.200;2023-05-02T08:23:58;168125.81;;;17.78;60.59
1776;BME280;885;42.626;23.200;2023-05-02T08:26:26;168157.31;;;17.89;61.36
1776;BME280;885;42.626;23.200;2023-05-02T08:28:53;168172.41;;;17.95;59.48
1776;BME280;885;42.626;23.200;2023-05-02T08:31:21;167759.84;;;17.81;60.45
1776;BME280;885;42.626;23.200;2023-05-02T08:33:48;167785.88;;;17.91;59.44
1776;BME280;885;42.626;23.200;2023-05-02T08:36:16;166897.28;;;17.40;60.43
1776;BME280;885;42.626;23.200;2023-05-02T08:38:44;166439.31;;;17.09;62.17
1776;BME280;885;42.626;23.200;2023-05-02T08:41:12;166833.31;;;17.16;63.90
1776;BME280;885;42.626;23.200;2023-05-02T08:43:39;166402.69;;;16.96;61.95
1776;BME280;885;42.626;23.200;2023-05-02T08:46:07;166420.34;;;17.02;62.27
1776;BME280;885;42.626;23.200;2023-05-02T08:48:37;166495.00;;;17.30;61.23
1776;BME280;885;42.626;23.200;2023-05-02T08:51:09;166512.59;;;17.36;60.58
1776;BME280;885;42.626;23.200;2023-05-02T08:53:37;166549.31;;;17.50;59.52
1776;BME280;885;42.626;23.200;2023-05-02T08:56:08;166944.94;;;17.58;62.20
1776;BME280;885;42.626;23.200;2023-05-02T08:58:36;166152.41;;;17.42;59.74
1776;BME280;885;42.626;23.200;2023-05-02T09:01:09;166524.81;;;17.41;61.25
1776;BME280;885;42.626;23.200;2023-05-02T09:03:37;166063.03;;;17.09;61.08
1776;BME280;885;42.626;23.200;2023-05-02T09:06:06;166432.56;;;17.07;64.62
1776;BME280;885;42.626;23.200;2023-05-02T09:08:33;164786.56;;;16.52;61.89
1776;BME280;885;42.626;23.200;2023-05-02T09:11:00;163911.91;;;16.05;63.19
1776;BME280;885;42.626;23.200;2023-05-02T09:13:29;164328.94;;;16.21;63.36
1776;BME280;885;42.626;23.200;2023-05-02T09:15:57;163547.22;;;16.08;61.85
1776;BME280;885;42.626;23.200;2023-05-02T09:18:28;164758.28;;;16.41;63.85
1776;BME280;885;42.626;23.200;2023-05-02T09:20:58;164018.91;;;16.45;61.16
1776;BME280;885;42.626;23.200;2023-05-02T09:23:37;164043.06;;;16.54;60.84
1776;BME280;885;42.626;23.200;2023-05-02T09:26:12;163667.31;;;16.53;58.17
1776;BME280;885;42.626;23.200;2023-05-02T09:28:40;163664.69;;;16.52;59.01
1776;BME280;885;42.626;23.200;2023-05-02T09:31:12;162888.06;;;16.42;58.72
1776;BME280;885;42.626;23.200;2023-05-02T09:33:39;163703.38;;;16.67;59.29
1776;BME280;885;42.626;23.200;2023-05-02T09:36:10;164155.44;;;16.96;58.21
1776;BME280;885;42.626;23.200;2023-05-02T09:38:39;164198.22;;;17.12;57.23
1776;BME280;885;42.626;23.200;2023-05-02T09:41:07;164996.22;;;17.30;59.40
1776;BME280;885;42.626;23.200;2023-05-02T09:43:34;165066.22;;;17.57;58.50
1776;BME280;885;42.626;23.200;2023-05-02T09:46:02;165130.75;;;17.81;56.68
1776;BME280;885;42.626;23.200;2023-05-02T09:48:30;165161.72;;;17.92;56.61
1776;BME280;885;42.626;23.200;2023-05-02T09:50:58;165195.34;;;18.05;55.75
1776;BME280;885;42.626;23.200;2023-05-02T09:53:27;165624.72;;;18.25;56.26
1776;BME280;885;42.626;23.200;2023-05-02T09:56:01;165280.13;;;18.37;55.65
1776;BME280;885;42.626;23.200;2023-05-02T09:58:28;164901.81;;;18.36;54.28
1776;BME280;885;42.626;23.200;2023-05-02T10:00:57;165313.81;;;18.49;55.12
1776;BME280;885;42.626;23.200;2023-05-02T10:03:25;165369.00;;;18.70;53.66
1776;BME280;885;42.626;23.200;2023-05-02T10:05:52;165844.69;;;19.07;53.34
1776;BME280;885;42.626;23.200;2023-05-02T10:08:20;165894.59;;;19.26;53.09
1776;BME280;885;42.626;23.200;2023-05-02T10:10:53;166314.16;;;19.42;54.46
1776;BME280;885;42.626;23.200;2023-05-02T10:13:21;166780.09;;;19.75;53.26
1776;BME280;885;42.626;23.200;2023-05-02T10:15:55;166456.25;;;19.95;52.16
1776;BME280;885;42.626;23.200;2023-05-02T10:18:26;165217.53;;;19.54;50.61
1776;BME280;885;42.626;23.200;2023-05-02T10:20:57;165239.03;;;19.62;51.88
1776;BME280;885;42.626;23.200;2023-05-02T10:23:25;165338.44;;;19.99;49.57
1776;BME280;885;42.626;23.200;2023-05-02T10:25:54;165335.78;;;19.98;51.25
1776;BME280;885;42.626;23.200;2023-05-02T10:28:21;164971.22;;;20.03;50.10
1776;BME280;885;42.626;23.200;2023-05-02T10:30:49;164210.09;;;20.00;49.02
1776;BME280;885;42.626;23.200;2023-05-02T10:33:16;163824.25;;;19.96;49.95
1776;BME280;885;42.626;23.200;2023-05-02T10:35:44;163813.59;;;19.92;50.42
1776;BME280;885;42.626;23.200;2023-05-02T10:38:13;163092.63;;;20.04;48.25
1776;BME280;885;42.626;23.200;2023-05-02T10:40:47;163119.13;;;20.14;48.95
1776;BME280;885;42.626;23.200;2023-05-02T10:43:23;163492.97;;;20.13;50.46
1776;BME280;885;42.626;23.200;2023-05-02T10:45:51;162729.41;;;20.09;48.67
1776;BME280;885;42.626;23.200;2023-05-02T10:48:19;161989.75;;;20.14;48.31
1776;BME280;885;42.626;23.200;2023-05-02T10:50:48;161968.72;;;20.06;49.15
1776;BME280;885;42.626;23.200;2023-05-02T10:53:37;161161.09;;;19.85;49.29
1776;BME280;885;42.626;23.200;2023-05-02T10:56:20;160348.94;;;19.62;48.50
1776;BME280;885;42.626;23.200;2023-05-02T10:58:49;159975.59;;;19.63;48.74
1776;BME280;885;42.626;23.200;2023-05-02T11:01:35;159591.94;;;19.60;48.48
1776;BME280;885;42.626;23.200;2023-05-02T11:04:08;160004.19;;;19.74;49.52
1776;BME280;885;42.626;23.200;2023-05-02T11:06:36;159687.84;;;19.97;47.52
1776;BME280;885;42.626;23.200;2023-05-02T11:12:06;159451.50;;;20.51;44.64
1776;BME280;885;42.626;23.200;2023-05-02T11:14:46;159539.47;;;20.86;43.97
1776;BME280;885;42.626;23.200;2023-05-02T11:17:16;159947.22;;;20.98;46.23
1776;BME280;885;42.626;23.200;2023-05-02T11:22:53;160109.47;;;21.61;44.19
1776;BME280;885;42.626;23.200;2023-05-02T11:25:38;159755.66;;;21.70;44.11
1776;BME280;885;42.626;23.200;2023-05-02T11:28:07;158669.38;;;21.87;42.43
1776;BME280;885;42.626;23.200;2023-05-02T11:30:54;158747.81;;;22.18;42.01
1776;BME280;885;42.626;23.200;2023-05-02T11:33:21;158451.22;;;22.50;41.42
1776;BME280;885;42.626;23.200;2023-05-02T11:35:48;157380.00;;;22.74;40.22
1776;BME280;885;42.626;23.200;2023-05-02T11:38:17;156609.75;;;22.68;40.67
1776;BME280;885;42.626;23.200;2023-05-02T11:40:56;155461.19;;;22.61;39.33
1776;BME280;885;42.626;23.200;2023-05-02T11:43:23;153904.84;;;22.42;39.70
1776;BME280;885;42.626;23.200;2023-05-02T11:45:51;152712.06;;;22.17;40.07
1776;BME280;885;42.626;23.200;2023-05-02T11:48:20;151903.28;;;21.94;41.49
1776;BME280;885;42.626;23.200;2023-05-02T11:50:50;149932.19;;;21.58;41.25
1776;BME280;885;42.626;23.200;2023-05-02T11:53:19;149918.88;;;21.52;42.61
1776;BME280;885;42.626;23.200;2023-05-02T11:55:55;148360.59;;;21.29;41.67
1776;BME280;885;42.626;23.200;2023-05-02T11:58:23;148291.00;;;21.00;44.04
1776;BME280;885;42.626;23.200;2023-05-02T12:00:51;146756.47;;;20.87;42.44
1776;BME280;885;42.626;23.200;2023-05-02T12:03:21;146353.81;;;20.75;43.54
1776;BME280;885;42.626;23.200;2023-05-02T12:05:48;146739.88;;;20.80;43.34
1776;BME280;885;42.626;23.200;2023-05-02T12:08:23;147936.88;;;21.09;44.32
1776;BME280;885;42.626;23.200;2023-05-02T12:10:52;147977.53;;;21.26;43.34
1776;BME280;885;42.626;23.200;2023-05-02T12:13:20;146762.41;;;20.89;43.98
1776;BME280;885;42.626;23.200;2023-05-02T12:15:49;147200.97;;;21.16;43.23
1776;BME280;885;42.626;23.200;2023-05-02T12:18:16;147176.00;;;21.05;44.41
1776;BME280;885;42.626;23.200;2023-05-02T12:20:45;147610.13;;;21.30;42.91
1776;BME280;885;42.626;23.200;2023-05-02T12:23:12;147292.63;;;21.55;41.79
1776;BME280;885;42.626;23.200;2023-05-02T12:25:41;148105.56;;;21.80;41.41
1776;BME280;885;42.626;23.200;2023-05-02T12:28:08;150076.56;;;22.18;43.73
1776;BME280;885;42.626;23.200;2023-05-02T12:30:37;149804.06;;;22.61;40.32
1776;BME280;885;42.626;23.200;2023-05-02T12:33:05;147826.13;;;22.21;39.72
1776;BME280;885;42.626;23.200;2023-05-02T12:35:33;147408.13;;;22.03;41.22
1776;BME280;885;42.626;23.200;2023-05-02T12:38:10;147422.41;;;22.09;41.74
1776;BME280;885;42.626;23.200;2023-05-02T12:40:38;146589.38;;;21.75;42.45
1776;BME280;885;42.626;23.200;2023-05-02T12:43:05;145419.28;;;21.57;42.23
1776;BME280;885;42.626;23.200;2023-05-02T12:45:35;144222.22;;;21.27;42.18
1776;BME280;885;42.626;23.200;2023-05-02T12:48:16;143800.31;;;21.07;43.56
1776;BME280;885;42.626;23.200;2023-05-02T12:50:43;144597.72;;;21.27;44.13
1776;BME280;885;42.626;23.200;2023-05-02T12:53:12;145825.66;;;21.70;43.53
1776;BME280;885;42.626;23.200;2023-05-02T12:55:39;145862.22;;;21.86;42.89
1776;BME280;885;42.626;23.200;2023-05-02T12:58:07;145510.94;;;21.96;41.38
1776;BME280;885;42.626;23.200;2023-05-02T13:00:37;145485.06;;;21.85;42.94
1776;BME280;885;42.626;23.200;2023-05-02T13:03:04;145907.00;;;22.05;42.43
1776;BME280;885;42.626;23.200;2023-05-02T13:05:32;145945.84;;;22.22;41.82
1776;BME280;885;42.626;23.200;2023-05-02T13:07:58;146331.53;;;22.26;42.73
1776;BME280;885;42.626;23.200;2023-05-02T13:10:27;145181.75;;;22.17;41.81
1776;BME280;885;42.626;23.200;2023-05-02T13:12:53;144785.81;;;22.08;42.11
1776;BME280;885;42.626;23.200;2023-05-02T13:15:21;143596.44;;;21.81;41.61
1776;BME280;885;42.626;23.200;2023-05-02T13:17:49;141176.16;;;21.08;43.63
1776;BME280;885;42.626;23.200;2023-05-02T13:20:16;140789.75;;;21.03;42.76
1776;BME280;885;42.626;23.200;2023-05-02T13:22:43;141947.03;;;21.17;44.07
1776;BME280;885;42.626;23.200;2023-05-02T13:25:10;140412.41;;;21.02;43.49